sensor_id;sensor_type;location;lat;lon;timestamp;P1;durP1;ratioP1;P2;durP2;ratioP2
13605;SDS011;6874;52.084;5.090;2023-07-31T00:01:28;234.83;;;226.03;;
13605;SDS011;6874;52.084;5.090;2023-07-31T00:03:54;235.63;;;226.90;;
13605;SDS011;6874;52.084;5.090;2023-07-31T00:06:19;231.67;;;222.90;;
13605;SDS011;6874;52.084;5.090;2023-07-31T00:08:45;238.97;;;229.87;;
13605;SDS011;6874;52.084;5.090;2023-07-31T00:11:10;234.17;;;225.40;;
13605;SDS011;6874;52.084;5.090;2023-07-31T00:13:36;227.50;;;218.60;;
13605;SDS011;6874;52.084;5.090;2023-07-31T00:16:01;260.80;;;250.03;;
13605;SDS011;6874;52.084;5.090;2023-07-31T00:18:27;315.87;;;302.87;;
13605;SDS011;6874;52.084;5.090;2023-07-31T00:20:53;369.07;;;354.03;;
13605;SDS011;6874;52.084;5.090;2023-07-31T00:23:18;408.93;;;392.27;;
13605;SDS011;6874;52.084;5.090;2023-07-31T00:25:44;417.37;;;400.43;;
13605;SDS011;6874;52.084;5.090;2023-07-31T00:28:09;411.90;;;395.20;;
13605;SDS011;6874;52.084;5.090;2023-07-31T00:30:35;398.40;;;382.73;;
13605;SDS011;6874;52.084;5.090;2023-07-31T00:33:01;364.93;;;351.03;;
13605;SDS011;6874;52.084;5.090;2023-07-31T00:35:26;331.77;;;319.43;;
13605;SDS011;6874;52.084;5.090;2023-07-31T00:37:52;258.80;;;249.20;;
13605;SDS011;6874;52.084;5.090;2023-07-31T00:40:17;186.80;;;179.53;;
13605;SDS011;6874;52.084;5.090;2023-07-31T00:42:43;187.33;;;180.23;;
13605;SDS011;6874;52.084;5.090;2023-07-31T00:45:08;224.93;;;216.43;;
13605;SDS011;6874;52.084;5.090;2023-07-31T00:47:34;263.13;;;253.10;;
13605;SDS011;6874;52.084;5.090;2023-07-31T00:50:00;313.50;;;301.40;;
13605;SDS011;6874;52.084;5.090;2023-07-31T00:52:25;341.90;;;328.77;;
13605;SDS011;6874;52.084;5.090;2023-07-31T00:54:51;358.70;;;345.10;;
13605;SDS011;6874;52.084;5.090;2023-07-31T00:57:17;365.47;;;351.53;;
13605;SDS011;6874;52.084;5.090;2023-07-31T00:59:43;371.60;;;357.63;;
13605;SDS011;6874;52.084;5.090;2023-07-31T01:02:08;359.13;;;345.40;;
13605;SDS011;6874;52.084;5.090;2023-07-31T01:04:34;371.03;;;357.03;;
13605;SDS011;6874;52.084;5.090;2023-07-31T01:09:49;334.87;;;322.57;;
13605;SDS011;6874;52.084;5.090;2023-07-31T01:12:24;324.37;;;312.77;;
13605;SDS011;6874;52.084;5.090;2023-07-31T01:17:26;267.57;;;258.43;;
13605;SDS011;6874;52.084;5.090;2023-07-31T01:19:51;262.87;;;253.90;;
13605;SDS011;6874;52.084;5.090;2023-07-31T01:22:24;252.83;;;244.27;;
13605;SDS011;6874;52.084;5.090;2023-07-31T01:27:59;206.80;;;199.90;;
13605;SDS011;6874;52.084;5.090;2023-07-31T01:30:32;214.47;;;207.23;;
13605;SDS011;6874;52.084;5.090;2023-07-31T01:33:00;214.63;;;207.23;;
13605;SDS011;6874;52.084;5.090;2023-07-31T01:35:32;210.20;;;202.87;;
13605;SDS011;6874;52.084;5.090;2023-07-31T01:38:01;198.97;;;192.00;;
13605;SDS011;6874;52.084;5.090;2023-07-31T01:40:26;194.93;;;188.13;;
13605;SDS011;6874;52.084;5.090;2023-07-31T01:42:52;196.80;;;189.90;;
13605;SDS011;6874;52.084;5.090;2023-07-31T01:45:17;191.50;;;184.87;;
13605;SDS011;6874;52.084;5.090;2023-07-31T01:47:43;188.33;;;182.00;;
13605;SDS011;6874;52.084;5.090;2023-07-31T01:50:09;163.27;;;157.73;;
13605;SDS011;6874;52.084;5.090;2023-07-31T01:52:34;161.70;;;156.30;;
13605;SDS011;6874;52.084;5.090;2023-07-31T01:55:00;153.93;;;148.67;;
13605;SDS011;6874;52.084;5.090;2023-07-31T01:57:26;147.20;;;142.17;;
13605;SDS011;6874;52.084;5.090;2023-07-31T01:59:51;140.47;;;135.67;;
13605;SDS011;6874;52.084;5.090;2023-07-31T02:02:18;136.30;;;131.70;;
13605;SDS011;6874;52.084;5.090;2023-07-31T02:04:44;126.43;;;122.17;;
13605;SDS011;6874;52.084;5.090;2023-07-31T02:07:10;124.60;;;120.43;;
13605;SDS011;6874;52.084;5.090;2023-07-31T02:09:36;122.10;;;118.07;;
13605;SDS011;6874;52.084;5.090;2023-07-31T02:12:01;126.43;;;122.20;;
13605;SDS011;6874;52.084;5.090;2023-07-31T02:14:27;119.60;;;115.60;;
13605;SDS011;6874;52.084;5.090;2023-07-31T02:16:52;118.33;;;114.37;;
13605;SDS011;6874;52.084;5.090;2023-07-31T02:19:18;121.67;;;117.63;;
13605;SDS011;6874;52.084;5.090;2023-07-31T02:21:44;113.77;;;109.93;;
13605;SDS011;6874;52.084;5.090;2023-07-31T02:24:09;116.17;;;112.27;;
13605;SDS011;6874;52.084;5.090;2023-07-31T02:26:35;126.20;;;122.00;;
13605;SDS011;6874;52.084;5.090;2023-07-31T02:29:01;117.20;;;113.27;;
13605;SDS011;6874;52.084;5.090;2023-07-31T02:31:26;117.77;;;113.83;;
13605;SDS011;6874;52.084;5.090;2023-07-31T02:33:52;118.20;;;114.27;;
13605;SDS011;6874;52.084;5.090;2023-07-31T02:36:17;111.87;;;108.10;;
13605;SDS011;6874;52.084;5.090;2023-07-31T02:38:44;113.90;;;110.13;;
13605;SDS011;6874;52.084;5.090;2023-07-31T02:41:09;116.10;;;112.20;;
13605;SDS011;6874;52.084;5.090;2023-07-31T02:43:35;116.40;;;112.50;;
13605;SDS011;6874;52.084;5.090;2023-07-31T02:46:00;116.30;;;112.40;;
13605;SDS011;6874;52.084;5.090;2023-07-31T02:48:26;117.53;;;113.60;;
13605;SDS011;6874;52.084;5.090;2023-07-31T02:50:51;120.57;;;116.53;;
13605;SDS011;6874;52.084;5.090;2023-07-31T02:53:18;117.47;;;113.47;;
13605;SDS011;6874;52.084;5.090;2023-07-31T02:55:43;132.77;;;128.30;;
13605;SDS011;6874;52.084;5.090;2023-07-31T02:58:09;128.40;;;124.00;;
13605;SDS011;6874;52.084;5.090;2023-07-31T03:00:35;147.03;;;142.03;;
13605;SDS011;6874;52.084;5.090;2023-07-31T03:03:00;153.47;;;148.27;;
13605;SDS011;6874;52.084;5.090;2023-07-31T03:05:26;162.07;;;156.60;;
13605;SDS011;6874;52.084;5.090;2023-07-31T03:07:51;161.93;;;156.43;;
13605;SDS011;6874;52.084;5.090;2023-07-31T03:10:17;168.00;;;162.30;;
13605;SDS011;6874;52.084;5.090;2023-07-31T03:12:44;178.13;;;172.03;;
13605;SDS011;6874;52.084;5.090;2023-07-31T03:15:12;186.33;;;179.93;;
13605;SDS011;6874;52.084;5.090;2023-07-31T03:17:37;184.40;;;178.07;;
13605;SDS011;6874;52.084;5.090;2023-07-31T03:20:03;184.13;;;177.73;;
13605;SDS011;6874;52.084;5.090;2023-07-31T03:22:29;188.73;;;182.17;;
13605;SDS011;6874;52.084;5.090;2023-07-31T03:24:54;179.17;;;172.93;;
13605;SDS011;6874;52.084;5.090;2023-07-31T03:27:20;177.20;;;171.13;;
13605;SDS011;6874;52.084;5.090;2023-07-31T03:29:46;178.33;;;172.20;;
13605;SDS011;6874;52.084;5.090;2023-07-31T03:32:11;176.33;;;170.27;;
13605;SDS011;6874;52.084;5.090;2023-07-31T03:34:37;179.37;;;173.23;;
13605;SDS011;6874;52.084;5.090;2023-07-31T03:37:02;178.80;;;172.60;;
13605;SDS011;6874;52.084;5.090;2023-07-31T03:39:29;181.40;;;175.10;;
13605;SDS011;6874;52.084;5.090;2023-07-31T03:41:55;179.73;;;173.57;;
13605;SDS011;6874;52.084;5.090;2023-07-31T03:44:21;179.70;;;173.57;;
13605;SDS011;6874;52.084;5.090;2023-07-31T03:46:46;171.00;;;165.27;;
13605;SDS011;6874;52.084;5.090;2023-07-31T03:49:12;157.13;;;151.77;;
13605;SDS011;6874;52.084;5.090;2023-07-31T03:51:37;152.73;;;147.53;;
13605;SDS011;6874;52.084;5.090;2023-07-31T03:54:03;153.13;;;147.97;;
13605;SDS011;6874;52.084;5.090;2023-07-31T03:56:29;157.70;;;152.37;;
13605;SDS011;6874;52.084;5.090;2023-07-31T03:58:54;161.97;;;156.43;;
13605;SDS011;6874;52.084;5.090;2023-07-31T04:01:20;164.23;;;158.60;;
13605;SDS011;6874;52.084;5.090;2023-07-31T04:03:45;168.87;;;163.17;;
13605;SDS011;6874;52.084;5.090;2023-07-31T04:06:11;158.60;;;153.17;;
13605;SDS011;6874;52.084;5.090;2023-07-31T04:08:37;162.07;;;156.57;;
13605;SDS011;6874;52.084;5.090;2023-07-31T04:11:02;164.33;;;158.73;;
13605;SDS011;6874;52.084;5.090;2023-07-31T04:13:29;158.70;;;153.23;;
13605;SDS011;6874;52.084;5.090;2023-07-31T04:15:55;170.63;;;164.83;;
13605;SDS011;6874;52.084;5.090;2023-07-31T04:18:20;172.53;;;166.57;;
13605;SDS011;6874;52.084;5.090;2023-07-31T04:20:46;169.13;;;163.30;;
13605;SDS011;6874;52.084;5.090;2023-07-31T04:23:12;160.53;;;154.87;;
13605;SDS011;6874;52.084;5.090;2023-07-31T04:25:38;159.03;;;153.47;;
13605;SDS011;6874;52.084;5.090;2023-07-31T04:28:03;159.87;;;154.17;;
13605;SDS011;6874;52.084;5.090;2023-07-31T04:30:29;153.07;;;147.57;;
13605;SDS011;6874;52.084;5.090;2023-07-31T04:32:55;151.63;;;146.27;;
13605;SDS011;6874;52.084;5.090;2023-07-31T04:35:20;149.60;;;144.30;;
13605;SDS011;6874;52.084;5.090;2023-07-31T04:37:46;145.60;;;140.40;;
13605;SDS011;6874;52.084;5.090;2023-07-31T04:40:13;136.03;;;131.20;;
13605;SDS011;6874;52.084;5.090;2023-07-31T04:42:40;146.60;;;141.40;;
13605;SDS011;6874;52.084;5.090;2023-07-31T04:45:05;148.67;;;143.37;;
13605;SDS011;6874;52.084;5.090;2023-07-31T04:47:32;136.00;;;131.13;;
13605;SDS011;6874;52.084;5.090;2023-07-31T04:49:58;140.33;;;135.33;;
13605;SDS011;6874;52.084;5.090;2023-07-31T04:52:23;140.17;;;135.17;;
13605;SDS011;6874;52.084;5.090;2023-07-31T04:54:49;141.40;;;136.37;;
13605;SDS011;6874;52.084;5.090;2023-07-31T04:57:14;137.90;;;133.00;;
13605;SDS011;6874;52.084;5.090;2023-07-31T04:59:40;136.13;;;131.30;;
13605;SDS011;6874;52.084;5.090;2023-07-31T05:02:07;144.57;;;139.40;;
13605;SDS011;6874;52.084;5.090;2023-07-31T05:04:33;153.77;;;148.27;;
13605;SDS011;6874;52.084;5.090;2023-07-31T05:06:59;165.87;;;159.90;;
13605;SDS011;6874;52.084;5.090;2023-07-31T05:09:24;163.00;;;157.17;;
13605;SDS011;6874;52.084;5.090;2023-07-31T05:11:50;165.77;;;159.77;;
13605;SDS011;6874;52.084;5.090;2023-07-31T05:14:15;168.23;;;162.10;;
13605;SDS011;6874;52.084;5.090;2023-07-31T05:16:41;177.33;;;170.90;;
13605;SDS011;6874;52.084;5.090;2023-07-31T05:19:06;190.20;;;183.33;;
13605;SDS011;6874;52.084;5.090;2023-07-31T05:21:32;212.27;;;204.63;;
13605;SDS011;6874;52.084;5.090;2023-07-31T05:23:58;233.80;;;225.27;;
13605;SDS011;6874;52.084;5.090;2023-07-31T05:26:23;229.07;;;220.77;;
13605;SDS011;6874;52.084;5.090;2023-07-31T05:28:49;224.63;;;216.47;;
13605;SDS011;6874;52.084;5.090;2023-07-31T05:31:15;216.00;;;208.17;;
13605;SDS011;6874;52.084;5.090;2023-07-31T05:33:40;219.13;;;211.30;;
13605;SDS011;6874;52.084;5.090;2023-07-31T05:36:06;225.97;;;217.87;;
13605;SDS011;6874;52.084;5.090;2023-07-31T05:38:31;232.13;;;223.83;;
13605;SDS011;6874;52.084;5.090;2023-07-31T05:40:57;220.40;;;212.37;;
13605;SDS011;6874;52.084;5.090;2023-07-31T05:43:22;223.47;;;215.37;;
13605;SDS011;6874;52.084;5.090;2023-07-31T05:45:48;223.03;;;214.93;;
13605;SDS011;6874;52.084;5.090;2023-07-31T05:48:13;223.63;;;215.53;;
13605;SDS011;6874;52.084;5.090;2023-07-31T05:50:39;215.33;;;207.50;;
13605;SDS011;6874;52.084;5.090;2023-07-31T05:53:05;202.40;;;195.00;;
13605;SDS011;6874;52.084;5.090;2023-07-31T05:55:31;211.17;;;203.53;;
13605;SDS011;6874;52.084;5.090;2023-07-31T05:57:57;229.77;;;221.47;;
13605;SDS011;6874;52.084;5.090;2023-07-31T06:00:22;224.07;;;216.03;;
13605;SDS011;6874;52.084;5.090;2023-07-31T06:02:48;229.80;;;221.53;;
13605;SDS011;6874;52.084;5.090;2023-07-31T06:05:14;244.00;;;235.20;;
13605;SDS011;6874;52.084;5.090;2023-07-31T06:07:39;255.73;;;246.53;;
13605;SDS011;6874;52.084;5.090;2023-07-31T06:10:05;253.73;;;244.63;;
13605;SDS011;6874;52.084;5.090;2023-07-31T06:12:32;273.63;;;263.77;;
13605;SDS011;6874;52.084;5.090;2023-07-31T06:14:58;269.60;;;259.63;;
13605;SDS011;6874;52.084;5.090;2023-07-31T06:17:24;281.73;;;271.27;;
13605;SDS011;6874;52.084;5.090;2023-07-31T06:19:51;286.17;;;275.73;;
13605;SDS011;6874;52.084;5.090;2023-07-31T06:22:17;286.87;;;276.33;;
13605;SDS011;6874;52.084;5.090;2023-07-31T06:24:43;300.77;;;289.63;;
13605;SDS011;6874;52.084;5.090;2023-07-31T06:27:08;326.33;;;313.97;;
13605;SDS011;6874;52.084;5.090;2023-07-31T06:29:34;339.30;;;326.33;;
13605;SDS011;6874;52.084;5.090;2023-07-31T06:32:00;367.47;;;353.37;;
13605;SDS011;6874;52.084;5.090;2023-07-31T06:34:26;378.73;;;363.77;;
13605;SDS011;6874;52.084;5.090;2023-07-31T06:36:51;365.77;;;351.00;;
13605;SDS011;6874;52.084;5.090;2023-07-31T06:39:17;347.90;;;333.33;;
13605;SDS011;6874;52.084;5.090;2023-07-31T06:41:43;333.63;;;319.67;;
13605;SDS011;6874;52.084;5.090;2023-07-31T06:44:09;340.53;;;325.70;;
13605;SDS011;6874;52.084;5.090;2023-07-31T06:46:35;332.43;;;317.37;;
13605;SDS011;6874;52.084;5.090;2023-07-31T06:49:01;312.07;;;297.40;;
13605;SDS011;6874;52.084;5.090;2023-07-31T06:51:27;275.40;;;262.23;;
13605;SDS011;6874;52.084;5.090;2023-07-31T06:53:52;258.67;;;245.67;;
13605;SDS011;6874;52.084;5.090;2023-07-31T06:56:18;256.80;;;244.10;;
13605;SDS011;6874;52.084;5.090;2023-07-31T06:58:45;265.20;;;252.03;;
13605;SDS011;6874;52.084;5.090;2023-07-31T07:01:11;287.70;;;274.00;;
13605;SDS011;6874;52.084;5.090;2023-07-31T07:03:38;293.20;;;279.87;;
13605;SDS011;6874;52.084;5.090;2023-07-31T07:06:03;296.20;;;283.27;;
13605;SDS011;6874;52.084;5.090;2023-07-31T07:08:29;311.50;;;298.37;;
13605;SDS011;6874;52.084;5.090;2023-07-31T07:10:55;322.73;;;309.63;;
13605;SDS011;6874;52.084;5.090;2023-07-31T07:13:21;332.47;;;319.13;;
13605;SDS011;6874;52.084;5.090;2023-07-31T07:15:50;356.40;;;342.47;;
13605;SDS011;6874;52.084;5.090;2023-07-31T07:18:19;328.57;;;315.83;;
13605;SDS011;6874;52.084;5.090;2023-07-31T07:20:54;340.67;;;327.53;;
13605;SDS011;6874;52.084;5.090;2023-07-31T07:23:22;311.20;;;299.77;;
13605;SDS011;6874;52.084;5.090;2023-07-31T07:25:47;299.50;;;288.53;;
13605;SDS011;6874;52.084;5.090;2023-07-31T07:28:13;276.97;;;267.23;;
13605;SDS011;6874;52.084;5.090;2023-07-31T07:30:39;211.90;;;204.57;;
13605;SDS011;6874;52.084;5.090;2023-07-31T07:33:05;213.40;;;205.90;;
13605;SDS011;6874;52.084;5.090;2023-07-31T07:35:34;207.80;;;200.53;;
13605;SDS011;6874;52.084;5.090;2023-07-31T07:38:01;214.67;;;207.07;;
13605;SDS011;6874;52.084;5.090;2023-07-31T07:40:27;222.20;;;214.10;;
13605;SDS011;6874;52.084;5.090;2023-07-31T07:42:53;243.23;;;233.87;;
13605;SDS011;6874;52.084;5.090;2023-07-31T07:45:19;255.13;;;245.33;;
13605;SDS011;6874;52.084;5.090;2023-07-31T07:47:44;270.60;;;260.03;;
13605;SDS011;6874;52.084;5.090;2023-07-31T07:50:10;317.17;;;304.97;;
13605;SDS011;6874;52.084;5.090;2023-07-31T07:52:35;310.77;;;298.87;;
13605;SDS011;6874;52.084;5.090;2023-07-31T07:55:01;309.10;;;297.50;;
13605;SDS011;6874;52.084;5.090;2023-07-31T07:57:28;302.63;;;291.00;;
13605;SDS011;6874;52.084;5.090;2023-07-31T07:59:54;282.03;;;271.63;;
13605;SDS011;6874;52.084;5.090;2023-07-31T08:02:20;268.37;;;258.20;;
13605;SDS011;6874;52.084;5.090;2023-07-31T08:04:45;252.90;;;243.40;;
13605;SDS011;6874;52.084;5.090;2023-07-31T08:07:11;255.97;;;246.33;;
13605;SDS011;6874;52.084;5.090;2023-07-31T08:09:39;249.10;;;239.90;;
13605;SDS011;6874;52.084;5.090;2023-07-31T08:12:06;249.20;;;240.10;;
13605;SDS011;6874;52.084;5.090;2023-07-31T08:14:32;228.00;;;219.97;;
13605;SDS011;6874;52.084;5.090;2023-07-31T08:16:57;203.20;;;196.13;;
13605;SDS011;6874;52.084;5.090;2023-07-31T08:19:23;221.23;;;213.60;;
13605;SDS011;6874;52.084;5.090;2023-07-31T08:21:49;249.40;;;240.73;;
13605;SDS011;6874;52.084;5.090;2023-07-31T08:24:14;319.47;;;308.07;;
13605;SDS011;6874;52.084;5.090;2023-07-31T08:26:40;350.90;;;337.93;;
13605;SDS011;6874;52.084;5.090;2023-07-31T08:29:05;369.87;;;355.47;;
13605;SDS011;6874;52.084;5.090;2023-07-31T08:31:31;345.47;;;331.43;;
13605;SDS011;6874;52.084;5.090;2023-07-31T08:33:57;345.87;;;331.03;;
13605;SDS011;6874;52.084;5.090;2023-07-31T08:36:22;337.93;;;323.13;;
13605;SDS011;6874;52.084;5.090;2023-07-31T08:38:48;345.10;;;329.90;;
13605;SDS011;6874;52.084;5.090;2023-07-31T08:41:14;327.67;;;313.10;;
13605;SDS011;6874;52.084;5.090;2023-07-31T08:43:42;327.37;;;312.47;;
13605;SDS011;6874;52.084;5.090;2023-07-31T08:46:10;312.53;;;298.40;;
13605;SDS011;6874;52.084;5.090;2023-07-31T08:48:36;318.07;;;303.87;;
13605;SDS011;6874;52.084;5.090;2023-07-31T08:51:03;304.47;;;291.23;;
13605;SDS011;6874;52.084;5.090;2023-07-31T08:53:29;336.83;;;322.30;;
13605;SDS011;6874;52.084;5.090;2023-07-31T08:55:54;342.13;;;327.07;;
13605;SDS011;6874;52.084;5.090;2023-07-31T08:58:23;353.03;;;337.80;;
13605;SDS011;6874;52.084;5.090;2023-07-31T09:00:49;368.03;;;351.97;;
13605;SDS011;6874;52.084;5.090;2023-07-31T09:03:17;348.23;;;332.93;;
13605;SDS011;6874;52.084;5.090;2023-07-31T09:05:44;357.10;;;341.27;;
13605;SDS011;6874;52.084;5.090;2023-07-31T09:08:12;342.00;;;327.10;;
13605;SDS011;6874;52.084;5.090;2023-07-31T09:10:42;331.27;;;316.70;;
13605;SDS011;6874;52.084;5.090;2023-07-31T09:13:09;306.50;;;292.97;;
13605;SDS011;6874;52.084;5.090;2023-07-31T09:15:35;308.80;;;295.40;;
13605;SDS011;6874;52.084;5.090;2023-07-31T09:18:02;323.30;;;309.10;;
13605;SDS011;6874;52.084;5.090;2023-07-31T09:20:30;346.10;;;330.43;;
13605;SDS011;6874;52.084;5.090;2023-07-31T09:22:56;366.10;;;349.40;;
13605;SDS011;6874;52.084;5.090;2023-07-31T09:25:29;397.47;;;378.57;;
13605;SDS011;6874;52.084;5.090;2023-07-31T09:27:59;416.60;;;396.70;;
13605;SDS011;6874;52.084;5.090;2023-07-31T09:30:26;396.83;;;378.00;;
13605;SDS011;6874;52.084;5.090;2023-07-31T09:32:59;375.77;;;357.80;;
13605;SDS011;6874;52.084;5.090;2023-07-31T09:35:28;375.00;;;356.67;;
13605;SDS011;6874;52.084;5.090;2023-07-31T09:37:56;386.50;;;367.73;;
13605;SDS011;6874;52.084;5.090;2023-07-31T09:40:31;422.23;;;401.67;;
13605;SDS011;6874;52.084;5.090;2023-07-31T09:43:02;459.40;;;436.57;;
13605;SDS011;6874;52.084;5.090;2023-07-31T09:45:29;430.63;;;409.33;;
13605;SDS011;6874;52.084;5.090;2023-07-31T09:47:59;437.73;;;416.07;;
13605;SDS011;6874;52.084;5.090;2023-07-31T09:50:25;427.97;;;406.97;;
13605;SDS011;6874;52.084;5.090;2023-07-31T09:52:51;431.33;;;409.80;;
13605;SDS011;6874;52.084;5.090;2023-07-31T09:55:17;420.13;;;399.17;;
13605;SDS011;6874;52.084;5.090;2023-07-31T09:57:44;411.83;;;391.40;;
13605;SDS011;6874;52.084;5.090;2023-07-31T10:00:13;393.53;;;374.50;;
13605;SDS011;6874;52.084;5.090;2023-07-31T10:02:40;397.80;;;378.50;;
13605;SDS011;6874;52.084;5.090;2023-07-31T10:05:06;377.57;;;359.40;;
13605;SDS011;6874;52.084;5.090;2023-07-31T10:07:42;385.50;;;366.93;;
13605;SDS011;6874;52.084;5.090;2023-07-31T10:10:16;405.00;;;385.43;;
13605;SDS011;6874;52.084;5.090;2023-07-31T10:12:43;404.07;;;384.87;;
13605;SDS011;6874;52.084;5.090;2023-07-31T10:15:10;378.83;;;361.43;;
13605;SDS011;6874;52.084;5.090;2023-07-31T10:17:36;345.23;;;330.00;;
13605;SDS011;6874;52.084;5.090;2023-07-31T10:20:02;319.07;;;305.13;;
13605;SDS011;6874;52.084;5.090;2023-07-31T10:22:30;276.80;;;265.20;;
13605;SDS011;6874;52.084;5.090;2023-07-31T10:24:57;265.57;;;254.73;;
13605;SDS011;6874;52.084;5.090;2023-07-31T10:27:24;257.83;;;247.57;;
13605;SDS011;6874;52.084;5.090;2023-07-31T10:29:49;256.67;;;246.43;;
13605;SDS011;6874;52.084;5.090;2023-07-31T10:32:17;264.47;;;254.10;;
13605;SDS011;6874;52.084;5.090;2023-07-31T10:34:43;267.30;;;257.10;;
13605;SDS011;6874;52.084;5.090;2023-07-31T10:37:19;263.23;;;253.20;;
13605;SDS011;6874;52.084;5.090;2023-07-31T10:39:56;267.53;;;257.30;;
13605;SDS011;6874;52.084;5.090;2023-07-31T10:42:33;257.77;;;247.97;;
13605;SDS011;6874;52.084;5.090;2023-07-31T10:45:05;261.93;;;252.10;;
13605;SDS011;6874;52.084;5.090;2023-07-31T10:47:39;274.50;;;264.07;;
13605;SDS011;6874;52.084;5.090;2023-07-31T10:50:21;272.40;;;262.13;;
13605;SDS011;6874;52.084;5.090;2023-07-31T10:52:52;266.30;;;256.13;;
13605;SDS011;6874;52.084;5.090;2023-07-31T10:55:24;267.87;;;257.57;;
13605;SDS011;6874;52.084;5.090;2023-07-31T10:57:52;264.23;;;253.87;;
13605;SDS011;6874;52.084;5.090;2023-07-31T11:00:34;271.27;;;260.80;;
13605;SDS011;6874;52.084;5.090;2023-07-31T11:03:03;271.73;;;261.40;;
13605;SDS011;6874;52.084;5.090;2023-07-31T11:08:29;265.57;;;255.23;;
13605;SDS011;6874;52.084;5.090;2023-07-31T11:13:34;263.00;;;253.07;;
13605;SDS011;6874;52.084;5.090;2023-07-31T11:16:11;262.53;;;252.50;;
13605;SDS011;6874;52.084;5.090;2023-07-31T11:18:44;279.53;;;268.90;;
13605;SDS011;6874;52.084;5.090;2023-07-31T11:21:17;289.23;;;278.13;;
13605;SDS011;6874;52.084;5.090;2023-07-31T11:23:48;276.20;;;265.67;;
13605;SDS011;6874;52.084;5.090;2023-07-31T11:26:16;288.90;;;278.03;;
13605;SDS011;6874;52.084;5.090;2023-07-31T11:28:42;282.03;;;271.37;;
13605;SDS011;6874;52.084;5.090;2023-07-31T11:31:09;294.43;;;283.50;;
13605;SDS011;6874;52.084;5.090;2023-07-31T11:33:35;307.23;;;296.03;;
13605;SDS011;6874;52.084;5.090;2023-07-31T11:36:01;319.07;;;307.37;;
13605;SDS011;6874;52.084;5.090;2023-07-31T11:38:28;315.43;;;303.83;;
13605;SDS011;6874;52.084;5.090;2023-07-31T11:40:56;325.20;;;313.33;;
13605;SDS011;6874;52.084;5.090;2023-07-31T11:43:27;318.20;;;306.50;;
13605;SDS011;6874;52.084;5.090;2023-07-31T11:45:54;321.73;;;309.87;;
13605;SDS011;6874;52.084;5.090;2023-07-31T11:48:24;318.50;;;306.67;;
13605;SDS011;6874;52.084;5.090;2023-07-31T11:50:53;326.40;;;314.43;;
13605;SDS011;6874;52.084;5.090;2023-07-31T11:53:29;334.03;;;321.63;;
13605;SDS011;6874;52.084;5.090;2023-07-31T11:56:05;313.57;;;302.03;;
13605;SDS011;6874;52.084;5.090;2023-07-31T11:58:34;317.07;;;305.23;;
13605;SDS011;6874;52.084;5.090;2023-07-31T12:01:01;327.90;;;315.50;;
13605;SDS011;6874;52.084;5.090;2023-07-31T12:03:27;324.00;;;311.90;;
13605;SDS011;6874;52.084;5.090;2023-07-31T12:05:53;342.03;;;329.10;;
13605;SDS011;6874;52.084;5.090;2023-07-31T12:08:22;348.37;;;335.23;;
13605;SDS011;6874;52.084;5.090;2023-07-31T12:10:52;326.17;;;313.77;;
13605;SDS011;6874;52.084;5.090;2023-07-31T12:13:23;338.87;;;325.90;;
13605;SDS011;6874;52.084;5.090;2023-07-31T12:15:59;332.63;;;319.90;;
13605;SDS011;6874;52.084;5.090;2023-07-31T12:18:26;330.07;;;317.63;;
13605;SDS011;6874;52.084;5.090;2023-07-31T12:20:58;327.93;;;315.50;;
13605;SDS011;6874;52.084;5.090;2023-07-31T12:23:29;333.67;;;320.93;;
13605;SDS011;6874;52.084;5.090;2023-07-31T12:26:33;335.13;;;322.47;;
13605;SDS011;6874;52.084;5.090;2023-07-31T12:28:49;314.70;;;302.93;;
13605;SDS011;6874;52.084;5.090;2023-07-31T12:31:20;337.87;;;324.93;;
13605;SDS011;6874;52.084;5.090;2023-07-31T12:33:47;328.47;;;316.03;;
13605;SDS011;6874;52.084;5.090;2023-07-31T12:36:15;339.80;;;327.00;;
13605;SDS011;6874;52.084;5.090;2023-07-31T12:38:43;325.33;;;313.03;;
13605;SDS011;6874;52.084;5.090;2023-07-31T12:41:09;343.90;;;330.73;;
13605;SDS011;6874;52.084;5.090;2023-07-31T12:43:36;338.63;;;325.73;;
13605;SDS011;6874;52.084;5.090;2023-07-31T12:46:04;363.60;;;349.43;;
13605;SDS011;6874;52.084;5.090;2023-07-31T12:48:30;347.53;;;334.10;;
13605;SDS011;6874;52.084;5.090;2023-07-31T12:50:57;326.13;;;313.60;;
13605;SDS011;6874;52.084;5.090;2023-07-31T12:53:22;332.60;;;319.90;;
13605;SDS011;6874;52.084;5.090;2023-07-31T12:55:48;331.60;;;318.97;;
13605;SDS011;6874;52.084;5.090;2023-07-31T12:58:13;342.03;;;328.57;;
13605;SDS011;6874;52.084;5.090;2023-07-31T13:00:39;333.27;;;320.00;;
13605;SDS011;6874;52.084;5.090;2023-07-31T13:03:05;343.97;;;330.10;;
13605;SDS011;6874;52.084;5.090;2023-07-31T13:05:30;347.60;;;333.50;;
13605;SDS011;6874;52.084;5.090;2023-07-31T13:07:56;328.57;;;315.23;;
13605;SDS011;6874;52.084;5.090;2023-07-31T13:10:22;325.50;;;312.17;;
13605;SDS011;6874;52.084;5.090;2023-07-31T13:12:48;314.53;;;301.73;;
13605;SDS011;6874;52.084;5.090;2023-07-31T13:15:14;325.23;;;312.10;;
13605;SDS011;6874;52.084;5.090;2023-07-31T13:17:40;347.03;;;332.87;;
13605;SDS011;6874;52.084;5.090;2023-07-31T13:20:06;353.30;;;338.83;;
13605;SDS011;6874;52.084;5.090;2023-07-31T13:22:32;350.40;;;336.07;;
13605;SDS011;6874;52.084;5.090;2023-07-31T13:24:57;353.30;;;338.57;;
13605;SDS011;6874;52.084;5.090;2023-07-31T13:27:23;346.73;;;332.43;;
13605;SDS011;6874;52.084;5.090;2023-07-31T13:29:49;347.30;;;332.67;;
13605;SDS011;6874;52.084;5.090;2023-07-31T13:32:15;329.70;;;316.30;;
13605;SDS011;6874;52.084;5.090;2023-07-31T13:34:42;336.57;;;322.80;;
13605;SDS011;6874;52.084;5.090;2023-07-31T13:37:08;342.70;;;328.53;;
13605;SDS011;6874;52.084;5.090;2023-07-31T13:39:34;347.47;;;333.30;;
13605;SDS011;6874;52.084;5.090;2023-07-31T13:41:59;374.13;;;358.43;;
13605;SDS011;6874;52.084;5.090;2023-07-31T13:44:26;367.60;;;352.20;;
13605;SDS011;6874;52.084;5.090;2023-07-31T13:46:51;366.03;;;350.53;;
13605;SDS011;6874;52.084;5.090;2023-07-31T13:49:17;365.10;;;349.53;;
13605;SDS011;6874;52.084;5.090;2023-07-31T13:51:42;365.73;;;350.30;;
13605;SDS011;6874;52.084;5.090;2023-07-31T13:54:08;372.90;;;356.70;;
13605;SDS011;6874;52.084;5.090;2023-07-31T13:56:36;361.67;;;346.27;;
13605;SDS011;6874;52.084;5.090;2023-07-31T13:59:01;334.47;;;320.70;;
13605;SDS011;6874;52.084;5.090;2023-07-31T14:01:27;335.07;;;321.07;;
13605;SDS011;6874;52.084;5.090;2023-07-31T14:03:53;333.00;;;319.40;;
13605;SDS011;6874;52.084;5.090;2023-07-31T14:06:19;343.70;;;329.63;;
13605;SDS011;6874;52.084;5.090;2023-07-31T14:08:44;345.63;;;331.30;;
13605;SDS011;6874;52.084;5.090;2023-07-31T14:11:10;348.60;;;334.00;;
13605;SDS011;6874;52.084;5.090;2023-07-31T14:13:35;343.57;;;329.30;;
13605;SDS011;6874;52.084;5.090;2023-07-31T14:16:01;362.50;;;347.53;;
13605;SDS011;6874;52.084;5.090;2023-07-31T14:18:26;376.27;;;360.27;;
13605;SDS011;6874;52.084;5.090;2023-07-31T14:20:52;368.83;;;353.20;;